sensor_id;sensor_type;location;lat;lon;timestamp;temperature;humidity
51613;DHT22;37694;51.748;14.326;2022-11-03T00:02:02;24.20;52.90
51613;DHT22;37694;51.748;14.326;2022-11-03T00:04:28;24.20;53.00
51613;DHT22;37694;51.748;14.326;2022-11-03T00:06:54;24.20;53.10
51613;DHT22;37694;51.748;14.326;2022-11-03T00:09:21;24.20;53.10
51613;DHT22;37694;51.748;14.326;2022-11-03T00:11:49;24.20;53.10
51613;DHT22;37694;51.748;14.326;2022-11-03T00:14:18;24.20;53.00
51613;DHT22;37694;51.748;14.326;2022-11-03T00:16:44;24.10;53.10
51613;DHT22;37694;51.748;14.326;2022-11-03T00:19:10;24.20;53.20
51613;DHT22;37694;51.748;14.326;2022-11-03T00:21:36;24.10;53.10
51613;DHT22;37694;51.748;14.326;2022-11-03T00:24:02;24.10;52.90
51613;DHT22;37694;51.748;14.326;2022-11-03T00:26:30;24.10;52.90
51613;DHT22;37694;51.748;14.326;2022-11-03T00:28:58;24.20;52.90
51613;DHT22;37694;51.748;14.326;2022-11-03T00:31:28;24.10;52.90
51613;DHT22;37694;51.748;14.326;2022-11-03T00:33:54;24.10;52.80
51613;DHT22;37694;51.748;14.326;2022-11-03T00:36:25;24.20;52.80
51613;DHT22;37694;51.748;14.326;2022-11-03T00:38:51;24.20;52.80
51613;DHT22;37694;51.748;14.326;2022-11-03T00:41:18;24.10;52.70
51613;DHT22;37694;51.748;14.326;2022-11-03T00:43:48;24.20;52.70
51613;DHT22;37694;51.748;14.326;2022-11-03T00:46:14;24.10;52.70
51613;DHT22;37694;51.748;14.326;2022-11-03T00:48:40;24.10;52.60
51613;DHT22;37694;51.748;14.326;2022-11-03T00:53:50;24.10;52.50
51613;DHT22;37694;51.748;14.326;2022-11-03T00:56:24;24.10;52.60
51613;DHT22;37694;51.748;14.326;2022-11-03T00:58:50;24.10;52.60
51613;DHT22;37694;51.748;14.326;2022-11-03T01:01:17;24.10;52.60
51613;DHT22;37694;51.748;14.326;2022-11-03T01:03:45;24.10;52.80
51613;DHT22;37694;51.748;14.326;2022-11-03T01:06:32;24.10;52.70
51613;DHT22;37694;51.748;14.326;2022-11-03T01:09:25;24.10;52.80
51613;DHT22;37694;51.748;14.326;2022-11-03T01:12:14;24.00;52.80
51613;DHT22;37694;51.748;14.326;2022-11-03T01:14:43;24.00;52.80
51613;DHT22;37694;51.748;14.326;2022-11-03T01:17:21;23.90;52.80
51613;DHT22;37694;51.748;14.326;2022-11-03T01:19:47;24.00;52.90
51613;DHT22;37694;51.748;14.326;2022-11-03T01:22:14;24.00;52.90
51613;DHT22;37694;51.748;14.326;2022-11-03T01:24:40;23.90;52.80
51613;DHT22;37694;51.748;14.326;2022-11-03T01:27:12;23.90;52.80
51613;DHT22;37694;51.748;14.326;2022-11-03T01:29:38;23.90;52.90
51613;DHT22;37694;51.748;14.326;2022-11-03T01:32:04;23.90;52.90
51613;DHT22;37694;51.748;14.326;2022-11-03T01:34:30;23.90;52.90
51613;DHT22;37694;51.748;14.326;2022-11-03T01:36:56;23.90;53.00
51613;DHT22;37694;51.748;14.326;2022-11-03T01:39:21;23.90;53.00
51613;DHT22;37694;51.748;14.326;2022-11-03T01:41:49;23.90;53.10
51613;DHT22;37694;51.748;14.326;2022-11-03T01:46:41;23.90;52.80
51613;DHT22;37694;51.748;14.326;2022-11-03T01:49:29;23.90;52.70
51613;DHT22;37694;51.748;14.326;2022-11-03T01:55:08;23.90;52.70
51613;DHT22;37694;51.748;14.326;2022-11-03T01:57:41;23.90;52.70
51613;DHT22;37694;51.748;14.326;2022-11-03T02:00:09;23.90;52.70
51613;DHT22;37694;51.748;14.326;2022-11-03T02:02:35;23.90;52.80
51613;DHT22;37694;51.748;14.326;2022-11-03T02:05:02;23.90;52.70
51613;DHT22;37694;51.748;14.326;2022-11-03T02:07:36;23.90;52.70
51613;DHT22;37694;51.748;14.326;2022-11-03T02:10:03;23.90;52.60
51613;DHT22;37694;51.748;14.326;2022-11-03T02:12:29;23.90;52.70
51613;DHT22;37694;51.748;14.326;2022-11-03T02:15:06;23.90;52.60
51613;DHT22;37694;51.748;14.326;2022-11-03T02:17:33;23.90;52.70
51613;DHT22;37694;51.748;14.326;2022-11-03T02:20:09;23.90;52.70
51613;DHT22;37694;51.748;14.326;2022-11-03T02:22:53;23.90;52.70
51613;DHT22;37694;51.748;14.326;2022-11-03T02:27:58;23.80;52.80
51613;DHT22;37694;51.748;14.326;2022-11-03T02:30:26;23.80;52.80
51613;DHT22;37694;51.748;14.326;2022-11-03T02:33:13;23.70;52.80
51613;DHT22;37694;51.748;14.326;2022-11-03T02:35:54;23.70;52.80
51613;DHT22;37694;51.748;14.326;2022-11-03T02:38:23;23.70;52.90
51613;DHT22;37694;51.748;14.326;2022-11-03T02:40:56;23.70;52.90
51613;DHT22;37694;51.748;14.326;2022-11-03T02:43:24;23.70;52.90
51613;DHT22;37694;51.748;14.326;2022-11-03T02:45:51;23.70;52.90
51613;DHT22;37694;51.748;14.326;2022-11-03T02:48:17;23.70;52.90
51613;DHT22;37694;51.748;14.326;2022-11-03T02:50:45;23.70;52.90
51613;DHT22;37694;51.748;14.326;2022-11-03T02:53:12;23.60;52.90
51613;DHT22;37694;51.748;14.326;2022-11-03T02:58:38;23.70;52.90
51613;DHT22;37694;51.748;14.326;2022-11-03T03:03:45;23.70;52.90
51613;DHT22;37694;51.748;14.326;2022-11-03T03:06:17;23.70;52.80
51613;DHT22;37694;51.748;14.326;2022-11-03T03:08:47;23.70;52.90
51613;DHT22;37694;51.748;14.326;2022-11-03T03:11:14;23.70;52.90
51613;DHT22;37694;51.748;14.326;2022-11-03T03:13:41;23.70;52.90
51613;DHT22;37694;51.748;14.326;2022-11-03T03:16:25;23.70;52.80
51613;DHT22;37694;51.748;14.326;2022-11-03T03:19:06;23.70;52.60
51613;DHT22;37694;51.748;14.326;2022-11-03T03:21:37;23.70;52.60
51613;DHT22;37694;51.748;14.326;2022-11-03T03:27:09;23.70;52.50
51613;DHT22;37694;51.748;14.326;2022-11-03T03:30:05;23.70;52.60
51613;DHT22;37694;51.748;14.326;2022-11-03T03:32:35;23.70;52.50
51613;DHT22;37694;51.748;14.326;2022-11-03T03:35:04;23.70;52.50
51613;DHT22;37694;51.748;14.326;2022-11-03T03:37:34;23.70;52.50
51613;DHT22;37694;51.748;14.326;2022-11-03T03:40:03;23.70;52.50
51613;DHT22;37694;51.748;14.326;2022-11-03T03:42:30;23.60;52.40
51613;DHT22;37694;51.748;14.326;2022-11-03T03:44:57;23.60;52.40
51613;DHT22;37694;51.748;14.326;2022-11-03T03:47:28;23.60;52.50
51613;DHT22;37694;51.748;14.326;2022-11-03T03:49:55;23.60;52.50
51613;DHT22;37694;51.748;14.326;2022-11-03T03:52:22;23.60;52.60
51613;DHT22;37694;51.748;14.326;2022-11-03T03:54:48;23.50;52.60
51613;DHT22;37694;51.748;14.326;2022-11-03T03:57:16;23.50;52.70
51613;DHT22;37694;51.748;14.326;2022-11-03T03:59:43;23.50;52.60
51613;DHT22;37694;51.748;14.326;2022-11-03T04:02:10;23.50;52.70
51613;DHT22;37694;51.748;14.326;2022-11-03T04:04:35;23.50;52.70
51613;DHT22;37694;51.748;14.326;2022-11-03T04:07:01;23.50;52.80
51613;DHT22;37694;51.748;14.326;2022-11-03T04:09:46;23.50;52.70
51613;DHT22;37694;51.748;14.326;2022-11-03T04:12:11;23.50;52.80
51613;DHT22;37694;51.748;14.326;2022-11-03T04:14:56;23.50;52.80
51613;DHT22;37694;51.748;14.326;2022-11-03T04:17:43;23.50;52.80
51613;DHT22;37694;51.748;14.326;2022-11-03T04:20:28;23.50;52.80
51613;DHT22;37694;51.748;14.326;2022-11-03T04:23:12;23.50;52.70
51613;DHT22;37694;51.748;14.326;2022-11-03T04:25:38;23.50;52.70
51613;DHT22;37694;51.748;14.326;2022-11-03T04:28:12;23.50;52.50
51613;DHT22;37694;51.748;14.326;2022-11-03T04:30:38;23.50;52.50
51613;DHT22;37694;51.748;14.326;2022-11-03T04:33:13;23.50;52.50
51613;DHT22;37694;51.748;14.326;2022-11-03T04:35:39;23.50;52.50
51613;DHT22;37694;51.748;14.326;2022-11-03T04:40:43;23.50;52.40
51613;DHT22;37694;51.748;14.326;2022-11-03T04:43:14;23.50;52.40
51613;DHT22;37694;51.748;14.326;2022-11-03T04:45:42;23.50;52.60
51613;DHT22;37694;51.748;14.326;2022-11-03T04:48:16;23.50;52.30
51613;DHT22;37694;51.748;14.326;2022-11-03T04:50:45;23.50;52.40
51613;DHT22;37694;51.748;14.326;2022-11-03T04:53:21;23.50;52.50
51613;DHT22;37694;51.748;14.326;2022-11-03T04:55:50;23.40;52.30
51613;DHT22;37694;51.748;14.326;2022-11-03T04:58:27;23.50;52.60
51613;DHT22;37694;51.748;14.326;2022-11-03T05:00:55;23.50;52.50
51613;DHT22;37694;51.748;14.326;2022-11-03T05:03:26;23.40;52.60
51613;DHT22;37694;51.748;14.326;2022-11-03T05:05:53;23.40;52.60
51613;DHT22;37694;51.748;14.326;2022-11-03T05:08:19;23.30;52.70
51613;DHT22;37694;51.748;14.326;2022-11-03T05:10:46;23.30;52.70
51613;DHT22;37694;51.748;14.326;2022-11-03T05:13:24;23.40;52.80
51613;DHT22;37694;51.748;14.326;2022-11-03T05:16:01;23.30;52.80
51613;DHT22;37694;51.748;14.326;2022-11-03T05:18:31;23.30;52.70
51613;DHT22;37694;51.748;14.326;2022-11-03T05:21:03;23.40;52.70
51613;DHT22;37694;51.748;14.326;2022-11-03T05:23:36;23.40;52.50
51613;DHT22;37694;51.748;14.326;2022-11-03T05:26:04;23.40;52.50
51613;DHT22;37694;51.748;14.326;2022-11-03T05:28:35;23.40;52.50
51613;DHT22;37694;51.748;14.326;2022-11-03T05:31:14;23.40;52.50
51613;DHT22;37694;51.748;14.326;2022-11-03T05:33:41;23.40;52.50
51613;DHT22;37694;51.748;14.326;2022-11-03T05:36:20;23.40;52.40
51613;DHT22;37694;51.748;14.326;2022-11-03T05:38:46;23.40;52.30
51613;DHT22;37694;51.748;14.326;2022-11-03T05:41:21;23.40;52.40
51613;DHT22;37694;51.748;14.326;2022-11-03T05:44:10;23.40;52.30
51613;DHT22;37694;51.748;14.326;2022-11-03T05:46:39;23.40;52.30
51613;DHT22;37694;51.748;14.326;2022-11-03T05:49:06;23.40;52.50
51613;DHT22;37694;51.748;14.326;2022-11-03T05:51:33;23.40;52.40
51613;DHT22;37694;51.748;14.326;2022-11-03T05:54:04;23.40;52.30
51613;DHT22;37694;51.748;14.326;2022-11-03T05:56:32;23.40;52.40
51613;DHT22;37694;51.748;14.326;2022-11-03T05:58:59;23.40;52.30
51613;DHT22;37694;51.748;14.326;2022-11-03T06:01:44;23.40;52.50
51613;DHT22;37694;51.748;14.326;2022-11-03T06:04:17;23.40;52.30
51613;DHT22;37694;51.748;14.326;2022-11-03T06:06:49;23.30;52.70
51613;DHT22;37694;51.748;14.326;2022-11-03T06:09:18;23.30;52.50
51613;DHT22;37694;51.748;14.326;2022-11-03T06:11:45;23.30;52.80
51613;DHT22;37694;51.748;14.326;2022-11-03T06:14:17;23.30;52.80
51613;DHT22;37694;51.748;14.326;2022-11-03T06:17:32;23.30;52.50
51613;DHT22;37694;51.748;14.326;2022-11-03T06:19:50;23.30;52.60
51613;DHT22;37694;51.748;14.326;2022-11-03T06:24:50;23.30;52.70
51613;DHT22;37694;51.748;14.326;2022-11-03T06:27:19;23.30;52.50
51613;DHT22;37694;51.748;14.326;2022-11-03T06:29:49;23.40;52.80
51613;DHT22;37694;51.748;14.326;2022-11-03T06:32:15;23.40;52.70
51613;DHT22;37694;51.748;14.326;2022-11-03T06:34:44;23.40;52.60
51613;DHT22;37694;51.748;14.326;2022-11-03T06:37:23;23.40;52.90
51613;DHT22;37694;51.748;14.326;2022-11-03T06:39:50;23.40;52.80
51613;DHT22;37694;51.748;14.326;2022-11-03T06:42:20;23.40;53.40
51613;DHT22;37694;51.748;14.326;2022-11-03T06:44:48;23.40;54.00
51613;DHT22;37694;51.748;14.326;2022-11-03T06:47:22;23.40;53.40
51613;DHT22;37694;51.748;14.326;2022-11-03T06:49:58;23.50;53.40
51613;DHT22;37694;51.748;14.326;2022-11-03T06:52:32;23.40;53.30
51613;DHT22;37694;51.748;14.326;2022-11-03T06:57:38;23.40;53.70
51613;DHT22;37694;51.748;14.326;2022-11-03T07:05:22;23.50;53.40
51613;DHT22;37694;51.748;14.326;2022-11-03T07:07:51;23.40;53.40
51613;DHT22;37694;51.748;14.326;2022-11-03T07:10:18;23.60;53.70
51613;DHT22;37694;51.748;14.326;2022-11-03T07:12:44;23.50;53.60
51613;DHT22;37694;51.748;14.326;2022-11-03T07:15:22;23.50;53.50
51613;DHT22;37694;51.748;14.326;2022-11-03T07:17:49;23.50;53.50
51613;DHT22;37694;51.748;14.326;2022-11-03T07:20:15;23.50;53.50
51613;DHT22;37694;51.748;14.326;2022-11-03T07:22:42;23.50;53.70
51613;DHT22;37694;51.748;14.326;2022-11-03T07:25:15;23.50;53.80
51613;DHT22;37694;51.748;14.326;2022-11-03T07:27:41;23.60;54.00
51613;DHT22;37694;51.748;14.326;2022-11-03T07:30:17;23.50;53.80
51613;DHT22;37694;51.748;14.326;2022-11-03T07:32:44;23.50;53.70
51613;DHT22;37694;51.748;14.326;2022-11-03T07:37:45;23.50;53.60
51613;DHT22;37694;51.748;14.326;2022-11-03T07:40:17;23.50;53.60
51613;DHT22;37694;51.748;14.326;2022-11-03T07:42:44;23.60;53.60
51613;DHT22;37694;51.748;14.326;2022-11-03T07:50:46;23.60;53.40
51613;DHT22;37694;51.748;14.326;2022-11-03T07:53:38;23.60;53.40
51613;DHT22;37694;51.748;14.326;2022-11-03T07:58:50;23.60;53.30
51613;DHT22;37694;51.748;14.326;2022-11-03T08:01:33;23.60;53.30
51613;DHT22;37694;51.748;14.326;2022-11-03T08:04:02;23.60;53.20
51613;DHT22;37694;51.748;14.326;2022-11-03T08:06:29;23.60;53.20
51613;DHT22;37694;51.748;14.326;2022-11-03T08:08:55;23.60;53.10
51613;DHT22;37694;51.748;14.326;2022-11-03T08:11:20;23.70;53.20
51613;DHT22;37694;51.748;14.326;2022-11-03T08:13:48;23.70;53.10
51613;DHT22;37694;51.748;14.326;2022-11-03T08:16:14;23.70;53.10
51613;DHT22;37694;51.748;14.326;2022-11-03T08:18:40;23.70;53.00
51613;DHT22;37694;51.748;14.326;2022-11-03T08:21:05;23.70;53.00
51613;DHT22;37694;51.748;14.326;2022-11-03T08:23:31;23.80;53.00
51613;DHT22;37694;51.748;14.326;2022-11-03T08:25:56;23.80;52.90
51613;DHT22;37694;51.748;14.326;2022-11-03T08:28:22;23.80;52.80
51613;DHT22;37694;51.748;14.326;2022-11-03T08:30:48;23.80;52.80
51613;DHT22;37694;51.748;14.326;2022-11-03T08:33:13;23.80;52.80
51613;DHT22;37694;51.748;14.326;2022-11-03T08:35:39;23.90;52.70
51613;DHT22;37694;51.748;14.326;2022-11-03T08:38:04;23.90;52.70
51613;DHT22;37694;51.748;14.326;2022-11-03T08:40:30;23.90;52.70
51613;DHT22;37694;51.748;14.326;2022-11-03T08:42:55;23.90;52.60
51613;DHT22;37694;51.748;14.326;2022-11-03T08:45:21;23.90;52.60
51613;DHT22;37694;51.748;14.326;2022-11-03T08:47:47;23.90;52.60
51613;DHT22;37694;51.748;14.326;2022-11-03T08:50:12;24.00;52.60
51613;DHT22;37694;51.748;14.326;2022-11-03T08:52:38;24.00;52.60
51613;DHT22;37694;51.748;14.326;2022-11-03T08:55:04;24.00;52.60
51613;DHT22;37694;51.748;14.326;2022-11-03T08:57:30;24.10;52.60
51613;DHT22;37694;51.748;14.326;2022-11-03T08:59:56;24.10;52.50
51613;DHT22;37694;51.748;14.326;2022-11-03T09:02:22;24.10;52.50
51613;DHT22;37694;51.748;14.326;2022-11-03T09:04:47;24.10;52.40
51613;DHT22;37694;51.748;14.326;2022-11-03T09:07:13;24.10;52.40
51613;DHT22;37694;51.748;14.326;2022-11-03T09:09:38;24.20;52.30
51613;DHT22;37694;51.748;14.326;2022-11-03T09:12:04;24.20;52.30
51613;DHT22;37694;51.748;14.326;2022-11-03T09:14:30;24.20;52.20
51613;DHT22;37694;51.748;14.326;2022-11-03T09:16:55;24.20;52.10
51613;DHT22;37694;51.748;14.326;2022-11-03T09:19:21;24.20;52.10
51613;DHT22;37694;51.748;14.326;2022-11-03T09:21:47;24.30;52.00
51613;DHT22;37694;51.748;14.326;2022-11-03T09:24:12;24.30;52.00
51613;DHT22;37694;51.748;14.326;2022-11-03T09:26:38;24.30;52.00
51613;DHT22;37694;51.748;14.326;2022-11-03T09:29:03;24.30;52.00
51613;DHT22;37694;51.748;14.326;2022-11-03T09:31:29;24.30;51.90
51613;DHT22;37694;51.748;14.326;2022-11-03T09:33:55;24.40;51.90
51613;DHT22;37694;51.748;14.326;2022-11-03T09:36:20;24.40;51.90
51613;DHT22;37694;51.748;14.326;2022-11-03T09:38:46;24.50;51.80
51613;DHT22;37694;51.748;14.326;2022-11-03T09:41:12;24.50;51.80
51613;DHT22;37694;51.748;14.326;2022-11-03T09:43:43;24.50;51.80
51613;DHT22;37694;51.748;14.326;2022-11-03T09:46:09;24.50;51.60
51613;DHT22;37694;51.748;14.326;2022-11-03T09:48:35;24.50;51.50
51613;DHT22;37694;51.748;14.326;2022-11-03T09:51:01;24.50;51.40
51613;DHT22;37694;51.748;14.326;2022-11-03T09:53:27;24.50;51.40
51613;DHT22;37694;51.748;14.326;2022-11-03T09:55:54;24.60;51.40
51613;DHT22;37694;51.748;14.326;2022-11-03T09:58:20;24.60;51.30
51613;DHT22;37694;51.748;14.326;2022-11-03T10:00:46;24.70;51.20
51613;DHT22;37694;51.748;14.326;2022-11-03T10:03:13;24.70;51.00
51613;DHT22;37694;51.748;14.326;2022-11-03T10:05:43;24.70;51.00
51613;DHT22;37694;51.748;14.326;2022-11-03T10:08:29;24.70;51.00
51613;DHT22;37694;51.748;14.326;2022-11-03T10:10:57;24.70;51.00
51613;DHT22;37694;51.748;14.326;2022-11-03T10:13:32;24.80;51.00
51613;DHT22;37694;51.748;14.326;2022-11-03T10:16:01;24.80;51.00
51613;DHT22;37694;51.748;14.326;2022-11-03T10:18:27;24.80;50.80
51613;DHT22;37694;51.748;14.326;2022-11-03T10:20:54;24.80;50.60
51613;DHT22;37694;51.748;14.326;2022-11-03T10:23:20;24.90;50.60
51613;DHT22;37694;51.748;14.326;2022-11-03T10:25:45;24.90;50.50
51613;DHT22;37694;51.748;14.326;2022-11-03T10:28:12;24.90;50.50
51613;DHT22;37694;51.748;14.326;2022-11-03T10:31:17;24.90;50.40
51613;DHT22;37694;51.748;14.326;2022-11-03T10:33:53;25.00;50.30
51613;DHT22;37694;51.748;14.326;2022-11-03T10:38:46;25.00;50.30
51613;DHT22;37694;51.748;14.326;2022-11-03T10:43:40;25.00;50.20
51613;DHT22;37694;51.748;14.326;2022-11-03T10:46:16;25.10;50.10
51613;DHT22;37694;51.748;14.326;2022-11-03T10:48:42;25.10;50.10
51613;DHT22;37694;51.748;14.326;2022-11-03T10:51:11;25.10;50.10
51613;DHT22;37694;51.748;14.326;2022-11-03T10:53:38;25.20;50.00
51613;DHT22;37694;51.748;14.326;2022-11-03T10:56:04;25.20;50.00
51613;DHT22;37694;51.748;14.326;2022-11-03T10:58:31;25.20;49.90
51613;DHT22;37694;51.748;14.326;2022-11-03T11:00:57;25.20;49.90
51613;DHT22;37694;51.748;14.326;2022-11-03T11:03:22;25.20;49.80
51613;DHT22;37694;51.748;14.326;2022-11-03T11:05:48;25.20;49.80
51613;DHT22;37694;51.748;14.326;2022-11-03T11:08:18;25.20;49.80
51613;DHT22;37694;51.748;14.326;2022-11-03T11:10:46;25.20;49.60
51613;DHT22;37694;51.748;14.326;2022-11-03T11:15:44;25.30;49.60
51613;DHT22;37694;51.748;14.326;2022-11-03T11:28:38;25.30;49.40
51613;DHT22;37694;51.748;14.326;2022-11-03T11:34:38;25.30;49.40
51613;DHT22;37694;51.748;14.326;2022-11-03T11:42:16;25.30;49.40
51613;DHT22;37694;51.748;14.326;2022-11-03T11:47:32;25.30;49.40
51613;DHT22;37694;51.748;14.326;2022-11-03T11:52:27;25.30;49.30
51613;DHT22;37694;51.748;14.326;2022-11-03T11:54:54;25.20;49.30
51613;DHT22;37694;51.748;14.326;2022-11-03T11:57:20;25.30;49.30
51613;DHT22;37694;51.748;14.326;2022-11-03T11:59:47;25.30;49.30
51613;DHT22;37694;51.748;14.326;2022-11-03T12:02:21;25.30;49.30
51613;DHT22;37694;51.748;14.326;2022-11-03T12:04:53;25.30;49.20
51613;DHT22;37694;51.748;14.326;2022-11-03T12:07:33;25.30;50.20
51613;DHT22;37694;51.748;14.326;2022-11-03T12:10:08;25.30;49.30
51613;DHT22;37694;51.748;14.326;2022-11-03T12:12:35;25.30;49.30
51613;DHT22;37694;51.748;14.326;2022-11-03T12:15:01;25.20;49.30
51613;DHT22;37694;51.748;14.326;2022-11-03T12:19:52;25.20;49.20
51613;DHT22;37694;51.748;14.326;2022-11-03T12:32:16;25.20;49.30
51613;DHT22;37694;51.748;14.326;2022-11-03T12:34:42;25.20;49.40
51613;DHT22;37694;51.748;14.326;2022-11-03T12:37:08;25.20;49.40
51613;DHT22;37694;51.748;14.326;2022-11-03T12:39:33;25.20;49.30
51613;DHT22;37694;51.748;14.326;2022-11-03T12:41:59;25.20;49.20
51613;DHT22;37694;51.748;14.326;2022-11-03T12:44:25;25.20;49.20
51613;DHT22;37694;51.748;14.326;2022-11-03T12:46:51;25.20;49.20
51613;DHT22;37694;51.748;14.326;2022-11-03T12:49:16;25.20;49.20
51613;DHT22;37694;51.748;14.326;2022-11-03T12:51:42;25.20;49.20
51613;DHT22;37694;51.748;14.326;2022-11-03T12:54:08;25.20;49.20
51613;DHT22;37694;51.748;14.326;2022-11-03T12:56:33;25.20;49.10
51613;DHT22;37694;51.748;14.326;2022-11-03T12:59:00;25.20;49.20
51613;DHT22;37694;51.748;14.326;2022-11-03T13:01:25;25.20;49.10
51613;DHT22;37694;51.748;14.326;2022-11-03T13:03:51;25.20;49.10
51613;DHT22;37694;51.748;14.326;2022-11-03T13:06:17;25.20;49.10
51613;DHT22;37694;51.748;14.326;2022-11-03T13:08:43;25.20;49.20
51613;DHT22;37694;51.748;14.326;2022-11-03T13:11:08;25.10;49.10
51613;DHT22;37694;51.748;14.326;2022-11-03T13:13:52;25.10;49.20
51613;DHT22;37694;51.748;14.326;2022-11-03T13:16:18;25.10;49.10
51613;DHT22;37694;51.748;14.326;2022-11-03T13:18:44;25.10;49.10
51613;DHT22;37694;51.748;14.326;2022-11-03T13:21:10;25.10;49.10
51613;DHT22;37694;51.748;14.326;2022-11-03T13:23:35;25.10;49.10
51613;DHT22;37694;51.748;14.326;2022-11-03T13:26:01;25.10;49.10
51613;DHT22;37694;51.748;14.326;2022-11-03T13:28:26;25.10;49.10
51613;DHT22;37694;51.748;14.326;2022-11-03T13:30:52;25.00;49.10
51613;DHT22;37694;51.748;14.326;2022-11-03T13:33:17;25.10;49.20
51613;DHT22;37694;51.748;14.326;2022-11-03T13:35:43;25.00;49.10
51613;DHT22;37694;51.748;14.326;2022-11-03T13:38:09;25.00;49.10
51613;DHT22;37694;51.748;14.326;2022-11-03T13:40:34;25.10;49.10
51613;DHT22;37694;51.748;14.326;2022-11-03T13:43:00;25.00;49.10
51613;DHT22;37694;51.748;14.326;2022-11-03T13:45:26;25.00;49.10
51613;DHT22;37694;51.748;14.326;2022-11-03T13:47:51;24.90;49.20
51613;DHT22;37694;51.748;14.326;2022-11-03T13:50:17;25.00;49.20
51613;DHT22;37694;51.748;14.326;2022-11-03T13:52:43;25.00;49.20
51613;DHT22;37694;51.748;14.326;2022-11-03T13:55:10;24.90;49.20
51613;DHT22;37694;51.748;14.326;2022-11-03T13:57:36;24.90;49.20
51613;DHT22;37694;51.748;14.326;2022-11-03T14:00:03;24.90;49.10
51613;DHT22;37694;51.748;14.326;2022-11-03T14:02:29;24.90;49.10
51613;DHT22;37694;51.748;14.326;2022-11-03T14:04:55;24.90;49.10
51613;DHT22;37694;51.748;14.326;2022-11-03T14:07:20;24.90;49.10
51613;DHT22;37694;51.748;14.326;2022-11-03T14:09:46;24.90;49.20
51613;DHT22;37694;51.748;14.326;2022-11-03T14:12:12;24.90;49.20
51613;DHT22;37694;51.748;14.326;2022-11-03T14:14:59;24.90;49.20
51613;DHT22;37694;51.748;14.326;2022-11-03T14:17:25;24.90;49.20
51613;DHT22;37694;51.748;14.326;2022-11-03T14:19:51;24.80;49.20
51613;DHT22;37694;51.748;14.326;2022-11-03T14:22:21;24.90;49.30
51613;DHT22;37694;51.748;14.326;2022-11-03T14:24:48;24.80;49.20
51613;DHT22;37694;51.748;14.326;2022-11-03T14:27:14;24.80;49.20
51613;DHT22;37694;51.748;14.326;2022-11-03T14:29:41;24.80;49.30
51613;DHT22;37694;51.748;14.326;2022-11-03T14:32:08;24.80;49.30
51613;DHT22;37694;51.748;14.326;2022-11-03T14:34:34;24.80;49.30
51613;DHT22;37694;51.748;14.326;2022-11-03T14:36:59;24.80;49.30
51613;DHT22;37694;51.748;14.326;2022-11-03T14:39:25;24.80;49.40
51613;DHT22;37694;51.748;14.326;2022-11-03T14:41:51;24.80;49.30
51613;DHT22;37694;51.748;14.326;2022-11-03T14:44:34;24.70;49.70
51613;DHT22;37694;51.748;14.326;2022-11-03T14:47:01;24.70;49.30
51613;DHT22;37694;51.748;14.326;2022-11-03T14:49:27;24.70;49.30
51613;DHT22;37694;51.748;14.326;2022-11-03T14:51:53;24.70;49.30
51613;DHT22;37694;51.748;14.326;2022-11-03T14:54:21;24.70;49.40
51613;DHT22;37694;51.748;14.326;2022-11-03T14:56:47;24.70;49.40
51613;DHT22;37694;51.748;14.326;2022-11-03T14:59:12;24.70;49.50
51613;DHT22;37694;51.748;14.326;2022-11-03T15:01:38;24.70;49.50
51613;DHT22;37694;51.748;14.326;2022-11-03T15:04:04;24.70;49.50
51613;DHT22;37694;51.748;14.326;2022-11-03T15:06:32;24.60;49.40
51613;DHT22;37694;51.748;14.326;2022-11-03T15:08:58;24.60;49.50
51613;DHT22;37694;51.748;14.326;2022-11-03T15:11:24;24.60;49.50
51613;DHT22;37694;51.748;14.326;2022-11-03T15:13:49;24.60;49.40
51613;DHT22;37694;51.748;14.326;2022-11-03T15:16:15;24.60;49.40
51613;DHT22;37694;51.748;14.326;2022-11-03T15:18:40;24.60;49.50
51613;DHT22;37694;51.748;14.326;2022-11-03T15:21:08;24.50;49.40
51613;DHT22;37694;51.748;14.326;2022-11-03T15:23:34;24.50;49.30
51613;DHT22;37694;51.748;14.326;2022-11-03T15:25:59;24.50;49.20
51613;DHT22;37694;51.748;14.326;2022-11-03T15:28:26;24.50;49.20
51613;DHT22;37694;51.748;14.326;2022-11-03T15:30:51;24.50;49.30
51613;DHT22;37694;51.748;14.326;2022-11-03T15:33:17;24.50;49.40
51613;DHT22;37694;51.748;14.326;2022-11-03T15:35:43;24.50;49.50
51613;DHT22;37694;51.748;14.326;2022-11-03T15:38:08;24.50;49.40
51613;DHT22;37694;51.748;14.326;2022-11-03T15:40:34;24.50;49.50
51613;DHT22;37694;51.748;14.326;2022-11-03T15:43:00;24.50;49.60
51613;DHT22;37694;51.748;14.326;2022-11-03T15:45:25;24.50;49.50
51613;DHT22;37694;51.748;14.326;2022-11-03T15:47:51;24.50;49.60
51613;DHT22;37694;51.748;14.326;2022-11-03T15:50:16;24.50;49.60
51613;DHT22;37694;51.748;14.326;2022-11-03T15:52:42;24.50;49.60
51613;DHT22;37694;51.748;14.326;2022-11-03T15:55:08;24.50;49.60
51613;DHT22;37694;51.748;14.326;2022-11-03T15:57:35;24.50;49.60
51613;DHT22;37694;51.748;14.326;2022-11-03T16:00:01;24.50;49.70
51613;DHT22;37694;51.748;14.326;2022-11-03T16:02:27;24.50;49.70
51613;DHT22;37694;51.748;14.326;2022-11-03T16:04:54;24.50;49.70
51613;DHT22;37694;51.748;14.326;2022-11-03T16:07:19;24.50;49.80
51613;DHT22;37694;51.748;14.326;2022-11-03T16:09:45;24.50;49.90
51613;DHT22;37694;51.748;14.326;2022-11-03T16:12:12;24.50;49.90
51613;DHT22;37694;51.748;14.326;2022-11-03T16:14:37;24.50;50.00
51613;DHT22;37694;51.748;14.326;2022-11-03T16:17:03;24.50;50.00
51613;DHT22;37694;51.748;14.326;2022-11-03T16:19:30;24.50;50.00
51613;DHT22;37694;51.748;14.326;2022-11-03T16:21:56;24.50;50.00
51613;DHT22;37694;51.748;14.326;2022-11-03T16:24:21;24.40;49.90
51613;DHT22;37694;51.748;14.326;2022-11-03T16:26:47;24.40;49.70
51613;DHT22;37694;51.748;14.326;2022-11-03T16:29:15;24.40;49.90
51613;DHT22;37694;51.748;14.326;2022-11-03T16:31:40;24.40;49.90
51613;DHT22;37694;51.748;14.326;2022-11-03T16:34:06;24.50;50.00
51613;DHT22;37694;51.748;14.326;2022-11-03T16:36:32;24.50;49.90
51613;DHT22;37694;51.748;14.326;2022-11-03T16:38:57;24.40;50.00
51613;DHT22;37694;51.748;14.326;2022-11-03T16:41:23;24.50;50.00
51613;DHT22;37694;51.748;14.326;2022-11-03T16:43:48;24.40;49.90
51613;DHT22;37694;51.748;14.326;2022-11-03T16:46:15;24.50;50.00
51613;DHT22;37694;51.748;14.326;2022-11-03T16:48:40;24.40;49.90
51613;DHT22;37694;51.748;14.326;2022-11-03T16:51:06;24.40;50.10
51613;DHT22;37694;51.748;14.326;2022-11-03T16:53:32;24.50;50.10